createdAt,value
2023-04-03T00:00:31.835Z,149163.41
2023-04-03T00:02:58.194Z,149134.47
2023-04-03T00:05:24.099Z,149155.84
2023-04-03T00:07:50.370Z,149142.00
2023-04-03T00:10:16.552Z,149131.97
2023-04-03T00:12:42.558Z,149121.91
2023-04-03T00:15:08.976Z,149167.16
2023-04-03T00:17:35.362Z,149138.25
2023-04-03T00:20:01.962Z,149111.88
2023-04-03T00:22:28.894Z,149118.16
2023-04-03T00:24:55.564Z,149115.63
2023-04-03T00:27:21.875Z,149120.66
2023-04-03T00:29:47.688Z,149121.91
2023-04-03T00:32:14.167Z,149114.38
2023-04-03T00:34:39.949Z,149094.28
2023-04-03T00:37:06.421Z,149114.38
2023-04-03T00:39:32.405Z,149081.69
2023-04-03T00:41:58.427Z,149087.97
2023-04-03T00:44:33.431Z,149075.44
2023-04-03T00:47:00.116Z,149075.44
2023-04-03T00:49:27.479Z,149076.69
2023-04-03T00:51:54.270Z,149046.50
2023-04-03T00:54:20.333Z,149074.19
2023-04-03T00:56:46.404Z,149052.78
2023-04-03T00:59:17.054Z,149067.88
2023-04-03T01:01:46.371Z,149070.38
2023-04-03T01:04:28.835Z,149061.59
2023-04-03T01:06:57.665Z,149074.19
2023-04-03T01:09:23.607Z,149045.25
2023-04-03T01:11:49.707Z,149044.00
2023-04-03T01:14:15.574Z,149049.03
2023-04-03T01:16:41.375Z,149076.69
2023-04-03T01:19:14.853Z,149050.28
2023-04-03T01:21:49.417Z,149055.34
2023-04-03T01:24:33.110Z,149055.34
2023-04-03T01:27:00.578Z,149039.00
2023-04-03T01:29:27.068Z,149042.75
2023-04-03T01:32:11.299Z,149060.34
2023-04-03T01:34:37.144Z,149031.44
2023-04-03T01:37:02.969Z,148986.22
2023-04-03T01:39:28.785Z,148983.72
2023-04-03T01:41:54.895Z,148993.75
2023-04-03T01:44:20.901Z,148984.97
2023-04-03T01:46:47.657Z,149006.31
2023-04-03T01:49:13.576Z,149015.09
2023-04-03T01:51:39.523Z,149010.06
2023-04-03T01:54:05.500Z,149001.25
2023-04-03T01:56:31.324Z,148973.66
2023-04-03T01:58:57.119Z,148948.53
2023-04-03T02:01:23.649Z,148953.56
2023-04-03T02:03:49.857Z,148953.56
2023-04-03T02:06:15.811Z,148966.13
2023-04-03T02:08:42.119Z,148963.59
2023-04-03T02:11:07.997Z,148983.72
2023-04-03T02:13:33.838Z,148984.97
2023-04-03T02:15:59.678Z,148972.41
2023-04-03T02:18:25.464Z,148949.78
2023-04-03T02:20:51.283Z,148943.50
2023-04-03T02:23:17.090Z,148935.97
2023-04-03T02:25:42.899Z,148930.97
2023-04-03T02:28:08.733Z,148886.97
2023-04-03T02:30:35.034Z,148915.88
2023-04-03T02:33:01.264Z,148932.22
2023-04-03T02:35:27.301Z,148939.72
2023-04-03T02:37:53.215Z,148913.38
2023-04-03T02:40:19.215Z,148943.50
2023-04-03T02:42:45.421Z,148909.56
2023-04-03T02:45:11.381Z,148912.06
2023-04-03T02:47:37.242Z,148879.47
2023-04-03T02:50:03.274Z,148856.81
2023-04-03T02:52:29.088Z,148871.91
2023-04-03T02:54:54.974Z,148831.72
2023-04-03T02:57:20.894Z,148829.22
2023-04-03T02:59:46.779Z,148824.22
2023-04-03T03:02:12.623Z,148858.06
2023-04-03T03:04:38.556Z,148855.56
2023-04-03T03:07:04.718Z,148869.41
2023-04-03T03:09:30.510Z,148831.72
2023-04-03T03:11:57.261Z,148865.63
2023-04-03T03:14:23.625Z,148831.72
2023-04-03T03:16:49.794Z,148835.50
2023-04-03T03:19:16.212Z,148811.66
2023-04-03T03:21:42.050Z,148817.91
2023-04-03T03:24:08.148Z,148834.22
2023-04-03T03:26:34.170Z,148859.38
2023-04-03T03:29:00.114Z,148870.66
2023-04-03T03:31:26.022Z,148849.31
2023-04-03T03:33:51.950Z,148868.13
2023-04-03T03:36:17.808Z,148854.31
2023-04-03T03:38:43.780Z,148856.81
2023-04-03T03:41:09.872Z,148819.16
2023-04-03T03:43:35.691Z,148785.25
2023-04-03T03:46:01.565Z,148781.50
2023-04-03T03:48:27.481Z,148795.31
2023-04-03T03:50:53.289Z,148792.81
2023-04-03T03:53:19.606Z,148771.47
2023-04-03T03:55:45.506Z,148784.00
2023-04-03T03:58:11.332Z,148784.00
2023-04-03T04:00:37.290Z,148753.91
2023-04-03T04:03:03.667Z,148752.66
2023-04-03T04:05:29.681Z,148712.44
2023-04-03T04:07:55.478Z,148694.88
2023-04-03T04:10:21.391Z,148718.75
2023-04-03T04:12:49.295Z,148723.78
2023-04-03T04:15:15.151Z,148718.75
2023-04-03T04:17:40.992Z,148738.84
2023-04-03T04:20:07.277Z,148716.25
2023-04-03T04:22:33.158Z,148723.78
2023-04-03T04:24:59.056Z,148728.78
2023-04-03T04:27:24.928Z,148702.44
2023-04-03T04:29:50.789Z,148740.09
2023-04-03T04:32:16.669Z,148730.03
2023-04-03T04:34:42.549Z,148702.44
2023-04-03T04:37:08.451Z,148672.31
2023-04-03T04:39:35.107Z,148699.94
2023-04-03T04:42:00.932Z,148713.72
2023-04-03T04:44:26.675Z,148733.84
2023-04-03T04:46:52.535Z,148714.97
2023-04-03T04:49:18.392Z,148714.97
2023-04-03T04:51:51.674Z,148681.13
2023-04-03T04:54:18.719Z,148672.31
2023-04-03T04:56:44.593Z,148632.16
2023-04-03T04:59:10.546Z,148650.97
2023-04-03T05:01:36.337Z,148697.38
2023-04-03T05:04:02.323Z,148677.31
2023-04-03T05:06:30.395Z,148684.88
2023-04-03T05:08:56.461Z,148672.31
2023-04-03T05:11:22.254Z,148683.63
2023-04-03T05:13:51.316Z,148679.81
2023-04-03T05:16:17.312Z,148659.75
2023-04-03T05:18:43.160Z,148681.13
2023-04-03T05:21:09.153Z,148689.88
2023-04-03T05:23:35.103Z,148658.50
2023-04-03T05:26:00.855Z,148672.31
2023-04-03T05:28:26.863Z,148674.81
2023-04-03T05:30:58.013Z,148678.56
2023-04-03T05:33:25.079Z,148634.66
2023-04-03T05:35:50.985Z,148674.81
2023-04-03T05:38:16.921Z,148693.63
2023-04-03T05:40:42.878Z,148657.25
2023-04-03T05:43:08.809Z,148682.38
2023-04-03T05:45:34.865Z,148682.38
2023-04-03T05:48:00.746Z,148699.94
2023-04-03T05:50:26.620Z,148720.00
2023-04-03T05:52:56.865Z,148732.53
2023-04-03T05:55:22.650Z,148717.50
2023-04-03T05:57:48.560Z,148717.50
2023-04-03T06:00:15.880Z,148736.34
2023-04-03T06:02:42.253Z,148743.84
2023-04-03T06:05:09.714Z,148756.41
2023-04-03T06:07:36.143Z,148760.16
2023-04-03T06:10:02.735Z,148714.97
2023-04-03T06:12:31.746Z,148723.78
2023-04-03T06:14:57.621Z,148728.78
2023-04-03T06:17:24.024Z,148751.34
2023-04-03T06:19:49.842Z,148789.06
2023-04-03T06:22:15.935Z,148780.25
2023-04-03T06:24:41.906Z,148785.25
2023-04-03T06:27:08.146Z,148792.81
2023-04-03T06:29:33.997Z,148815.41
2023-04-03T06:31:59.788Z,148819.16
2023-04-03T06:34:26.071Z,148820.41
2023-04-03T06:36:51.823Z,148795.31
2023-04-03T06:39:23.035Z,148766.44
2023-04-03T06:41:49.536Z,148761.41
2023-04-03T06:44:16.415Z,148747.59
2023-04-03T06:46:44.063Z,148777.75
2023-04-03T06:49:10.601Z,148801.59
2023-04-03T06:51:36.814Z,148843.03
2023-04-03T06:54:04.286Z,148855.56
2023-04-03T06:56:30.979Z,148868.13
2023-04-03T06:59:00.129Z,148854.31
2023-04-03T07:01:30.165Z,148881.97
2023-04-03T07:03:56.542Z,148859.38
2023-04-03T07:06:23.018Z,148874.41
2023-04-03T07:08:49.429Z,148863.13
2023-04-03T07:11:16.214Z,148845.56
2023-04-03T07:13:42.194Z,148878.22
2023-04-03T07:16:08.732Z,148878.22
2023-04-03T07:18:35.000Z,148930.97
2023-04-03T07:21:01.417Z,148890.72
2023-04-03T07:23:27.740Z,148880.72
2023-04-03T07:25:53.955Z,148908.31
2023-04-03T07:28:21.007Z,148917.13
2023-04-03T07:30:55.344Z,148929.66
2023-04-03T07:33:23.156Z,148935.97
2023-04-03T07:35:49.972Z,148959.81
2023-04-03T07:38:16.473Z,148976.16
2023-04-03T07:40:47.700Z,148997.50
2023-04-03T07:43:14.271Z,149001.25
2023-04-03T07:45:40.362Z,148996.25
2023-04-03T07:48:06.666Z,149010.06
2023-04-03T07:50:32.669Z,149032.69
2023-04-03T07:52:59.169Z,149081.69
2023-04-03T07:55:25.788Z,149080.44
2023-04-03T07:57:51.775Z,149104.31
2023-04-03T08:00:18.155Z,149096.78
2023-04-03T08:02:44.925Z,149123.16
2023-04-03T08:05:11.792Z,149137.00
2023-04-03T08:07:38.492Z,149159.59
2023-04-03T08:10:05.008Z,149147.06
2023-04-03T08:12:32.253Z,149140.75
2023-04-03T08:15:01.479Z,149144.56
2023-04-03T08:17:27.488Z,149158.34
2023-04-03T08:19:53.365Z,149184.78
2023-04-03T08:22:19.664Z,149203.63
2023-04-03T08:24:56.159Z,149192.28
2023-04-03T08:27:24.886Z,149223.75
2023-04-03T08:29:51.665Z,149237.56
2023-04-03T08:32:18.267Z,149277.81
2023-04-03T08:34:44.315Z,149287.88
2023-04-03T08:37:10.336Z,149292.91
2023-04-03T08:39:36.283Z,149279.06
2023-04-03T08:42:14.261Z,149300.44
2023-04-03T08:45:03.570Z,149302.94
2023-04-03T08:47:41.021Z,149339.41
2023-04-03T08:50:21.279Z,149380.94
2023-04-03T08:53:11.504Z,149375.88
2023-04-03T08:55:45.663Z,149373.38
2023-04-03T08:58:16.759Z,149403.56
2023-04-03T09:00:50.168Z,149414.91
2023-04-03T09:03:20.061Z,149414.91
2023-04-03T09:05:55.582Z,149458.94
2023-04-03T09:08:26.267Z,149451.41
2023-04-03T09:11:28.125Z,149490.41
2023-04-03T09:14:01.812Z,149467.75
2023-04-03T09:16:30.507Z,149469.00
2023-04-03T09:19:13.864Z,149533.16
2023-04-03T09:21:42.797Z,149529.41
2023-04-03T09:24:12.381Z,149518.06
2023-04-03T09:26:46.717Z,149547.03
2023-04-03T09:29:21.796Z,149574.72
2023-04-03T09:31:50.739Z,149555.81
2023-04-03T09:34:43.465Z,149529.41
2023-04-03T09:37:09.564Z,149548.28
2023-04-03T09:39:56.601Z,149587.28
2023-04-03T09:42:24.408Z,149599.88
2023-04-03T09:44:58.447Z,149626.31
2023-04-03T09:47:36.569Z,149657.78
2023-04-03T09:50:14.647Z,149681.75
2023-04-03T09:52:46.381Z,149710.66
2023-04-03T09:55:15.576Z,149750.97
2023-04-03T09:57:41.476Z,149750.97
2023-04-03T10:00:21.930Z,149735.88
2023-04-03T10:02:53.066Z,149806.38
2023-04-03T10:05:33.487Z,149834.09
2023-04-03T10:08:14.334Z,149853.00
2023-04-03T10:10:45.933Z,149938.69
2023-04-03T10:13:21.774Z,149913.47
2023-04-03T10:15:52.987Z,150016.81
2023-04-03T10:18:46.211Z,150052.09
2023-04-03T10:21:27.127Z,150106.31
2023-04-03T10:24:10.377Z,150105.06
2023-04-03T10:26:45.461Z,150247.56
2023-04-03T10:29:32.828Z,150337.19
2023-04-03T10:32:16.043Z,150434.38
2023-04-03T10:34:51.642Z,150510.09
2023-04-03T10:37:37.045Z,150505.03
2023-04-03T10:40:31.510Z,150579.56
2023-04-03T10:43:06.746Z,150568.19
2023-04-03T10:45:50.800Z,150688.16
2023-04-03T10:48:22.652Z,150781.63
2023-04-03T10:51:07.414Z,150866.31
2023-04-03T10:54:01.217Z,151000.31
2023-04-03T10:56:32.047Z,150995.28
2023-04-03T10:59:14.269Z,151038.25
2023-04-03T11:01:44.456Z,151111.59
2023-04-03T11:04:12.979Z,151220.38
2023-04-03T11:06:58.327Z,151181.16
2023-04-03T11:09:28.423Z,151119.22
2023-04-03T11:12:10.852Z,151219.09
2023-04-03T11:14:38.571Z,151268.47
2023-04-03T11:17:04.372Z,151425.47
2023-04-03T11:20:12.269Z,151459.66
2023-04-03T11:22:51.902Z,151415.31
2023-04-03T11:25:25.571Z,151397.59
2023-04-03T11:27:56.982Z,151435.56
2023-04-03T11:30:28.610Z,151463.44
2023-04-03T11:33:03.757Z,151478.63
2023-04-03T11:35:30.982Z,151341.84
2023-04-03T11:38:00.348Z,151371.03
2023-04-03T11:40:31.123Z,151269.72
2023-04-03T11:42:59.920Z,151177.38
2023-04-03T11:45:33.021Z,151200.13
2023-04-03T11:48:28.521Z,151178.63
2023-04-03T11:50:55.806Z,151144.47
2023-04-03T11:53:29.594Z,151192.56
2023-04-03T11:56:01.000Z,151353.28
2023-04-03T11:58:35.195Z,151430.50
2023-04-03T12:01:08.260Z,151548.25
2023-04-03T12:03:58.074Z,151647.06
2023-04-03T12:06:33.103Z,151642.00
2023-04-03T12:08:59.082Z,151695.19
2023-04-03T12:11:33.322Z,151636.91
2023-04-03T12:13:59.057Z,151577.38
2023-04-03T12:16:32.667Z,151683.78
2023-04-03T12:19:04.456Z,151704.06
2023-04-03T12:21:30.425Z,151716.72
2023-04-03T12:24:08.341Z,151825.75
2023-04-03T12:26:56.259Z,151693.94
2023-04-03T12:29:28.920Z,151710.38
2023-04-03T12:32:04.108Z,151802.97
2023-04-03T12:35:07.727Z,151764.91
2023-04-03T12:37:58.892Z,151725.56
2023-04-03T12:40:48.557Z,151731.94
2023-04-03T12:43:23.675Z,151752.25
2023-04-03T12:46:00.416Z,151611.59
2023-04-03T12:48:29.740Z,151601.44
2023-04-03T12:50:57.708Z,151663.53
2023-04-03T12:53:36.367Z,151690.09
2023-04-03T12:56:24.543Z,151733.22
2023-04-03T12:58:53.336Z,151733.22
2023-04-03T13:01:23.685Z,151685.03
2023-04-03T13:03:57.388Z,151692.63
2023-04-03T13:06:28.307Z,151739.53
2023-04-03T13:08:57.521Z,151829.53
2023-04-03T13:11:27.363Z,151832.06
2023-04-03T13:14:06.167Z,151806.75
2023-04-03T13:16:33.718Z,151996.88
2023-04-03T13:19:00.253Z,151847.28
2023-04-03T13:21:28.214Z,151778.84
2023-04-03T13:24:11.490Z,151734.47
2023-04-03T13:26:38.568Z,151673.63
2023-04-03T13:29:09.439Z,151685.03
2023-04-03T13:31:39.391Z,151643.25
2023-04-03T13:34:14.283Z,151591.31
2023-04-03T13:36:58.116Z,151564.69
2023-04-03T13:39:32.582Z,151571.06
2023-04-03T13:42:03.737Z,151619.16
2023-04-03T13:44:33.760Z,151759.84
2023-04-03T13:47:21.405Z,151626.78
2023-04-03T13:50:15.515Z,151626.78
2023-04-03T13:52:45.755Z,151687.56
2023-04-03T13:55:25.955Z,151564.69
2023-04-03T13:58:23.544Z,151578.66
2023-04-03T14:01:21.246Z,151687.56
2023-04-03T14:03:59.987Z,151450.75
2023-04-03T14:06:27.760Z,151509.00
2023-04-03T14:08:53.874Z,151490.00
2023-04-03T14:11:29.711Z,151488.75
2023-04-03T14:14:00.638Z,151297.59
2023-04-03T14:16:30.064Z,151293.75
2023-04-03T14:18:56.068Z,151271.00
2023-04-03T14:21:21.972Z,151215.31
2023-04-03T14:23:48.663Z,151252.00
2023-04-03T14:26:23.673Z,151402.66
2023-04-03T14:28:53.570Z,151517.88
2023-04-03T14:31:21.280Z,151471.00
2023-04-03T14:33:47.806Z,151406.47
2023-04-03T14:36:33.291Z,151522.94
2023-04-03T14:39:01.078Z,151315.31
2023-04-03T14:41:27.504Z,151335.53
2023-04-03T14:43:53.908Z,151381.13
2023-04-03T14:46:38.619Z,151473.53
2023-04-03T14:49:21.582Z,151391.28
2023-04-03T14:51:47.855Z,151453.28
2023-04-03T14:54:19.088Z,151457.06
2023-04-03T14:56:45.695Z,151298.84
2023-04-03T14:59:13.392Z,151417.84
2023-04-03T15:01:39.609Z,151478.63
2023-04-03T15:04:12.296Z,151379.88
2023-04-03T15:06:38.327Z,151239.34
2023-04-03T15:09:04.204Z,151259.59
2023-04-03T15:11:30.234Z,151222.91
2023-04-03T15:13:56.105Z,151209.03
2023-04-03T15:16:30.258Z,151152.06
2023-04-03T15:18:56.148Z,151124.25
2023-04-03T15:21:22.140Z,151063.56
2023-04-03T15:23:48.002Z,151042.03
2023-04-03T15:26:14.003Z,150983.88
2023-04-03T15:28:42.327Z,151030.69
2023-04-03T15:31:08.758Z,151114.13
2023-04-03T15:33:36.290Z,151167.25
2023-04-03T15:36:07.100Z,151187.47
2023-04-03T15:38:34.431Z,151182.44
2023-04-03T15:41:00.839Z,151101.50
2023-04-03T15:43:26.734Z,151010.47
2023-04-03T15:45:52.961Z,151052.19
2023-04-03T15:48:18.895Z,151005.38
2023-04-03T15:50:44.839Z,151128.03
2023-04-03T15:53:10.822Z,151215.31
2023-04-03T15:55:38.251Z,151145.75
2023-04-03T15:58:04.862Z,151138.19
2023-04-03T16:00:32.219Z,150977.59
2023-04-03T16:03:06.495Z,150986.41
2023-04-03T16:05:33.290Z,151059.75
2023-04-03T16:08:00.644Z,151097.66
2023-04-03T16:10:27.539Z,151120.47
2023-04-03T16:12:53.549Z,151035.72
2023-04-03T16:15:19.503Z,150999.06
2023-04-03T16:17:45.947Z,150992.75
2023-04-03T16:20:13.380Z,150999.06
2023-04-03T16:22:40.307Z,150964.94
2023-04-03T16:25:07.695Z,150803.09
2023-04-03T16:27:34.244Z,150842.28
2023-04-03T16:30:00.522Z,150724.78
2023-04-03T16:32:29.616Z,150641.41
2023-04-03T16:34:56.276Z,150652.78
2023-04-03T16:37:22.290Z,150574.47
2023-04-03T16:39:48.200Z,150507.59
2023-04-03T16:42:14.122Z,150518.91
2023-04-03T16:44:40.304Z,150505.03
2023-04-03T16:47:08.123Z,150547.97
2023-04-03T16:49:35.293Z,150464.63
2023-04-03T16:52:03.189Z,150497.47
2023-04-03T16:54:29.716Z,150443.19
2023-04-03T16:56:55.765Z,150392.69
2023-04-03T16:59:21.730Z,150310.72
2023-04-03T17:01:47.635Z,150353.59
2023-04-03T17:04:13.581Z,150362.41
2023-04-03T17:06:40.101Z,150303.13
2023-04-03T17:09:07.163Z,150306.88
2023-04-03T17:13:59.816Z,150237.50
2023-04-03T17:16:28.397Z,150266.50
2023-04-03T17:18:57.900Z,150234.94
2023-04-03T17:21:26.657Z,150185.78
2023-04-03T17:24:00.936Z,150205.97
2023-04-03T17:26:28.325Z,150189.56
2023-04-03T17:28:54.163Z,150190.81
2023-04-03T17:31:20.603Z,150173.16
2023-04-03T17:33:46.537Z,150147.97
2023-04-03T17:36:12.578Z,150171.91
2023-04-03T17:38:38.831Z,150141.63
2023-04-03T17:41:07.302Z,150136.59
2023-04-03T17:43:34.173Z,150102.53
2023-04-03T17:46:06.313Z,150082.38
2023-04-03T17:48:33.857Z,150100.03
2023-04-03T17:51:07.330Z,150063.47
2023-04-03T17:53:33.270Z,150013.03
2023-04-03T17:56:04.862Z,150000.41
2023-04-03T17:58:30.819Z,150018.06
2023-04-03T18:00:57.235Z,149990.38
2023-04-03T18:03:23.158Z,149992.88
2023-04-03T18:05:50.191Z,150015.56
2023-04-03T18:08:16.670Z,149928.59
2023-04-03T18:10:42.711Z,149921.03
2023-04-03T18:13:09.061Z,149882.00
2023-04-03T18:15:35.053Z,149898.38
2023-04-03T18:18:00.995Z,149834.09
2023-04-03T18:20:26.980Z,149816.47
2023-04-03T18:22:52.953Z,149837.88
2023-04-03T18:25:19.148Z,149826.56
2023-04-03T18:27:46.505Z,149826.56
2023-04-03T18:30:15.837Z,149791.28
2023-04-03T18:32:42.432Z,149865.63
2023-04-03T18:35:08.664Z,149844.22
2023-04-03T18:37:34.731Z,149810.19
2023-04-03T18:40:00.718Z,149822.75
2023-04-03T18:42:27.000Z,149786.22
2023-04-03T18:44:57.852Z,149740.91
2023-04-03T18:47:24.090Z,149715.69
2023-04-03T18:49:50.014Z,149701.88
2023-04-03T18:52:16.104Z,149684.25
2023-04-03T18:54:42.607Z,149649.00
2023-04-03T18:57:08.532Z,149642.66
2023-04-03T18:59:34.525Z,149625.03
2023-04-03T19:02:01.141Z,149604.91
2023-04-03T19:04:28.227Z,149581.00
2023-04-03T19:06:54.482Z,149598.63
2023-04-03T19:09:20.858Z,149604.91
2023-04-03T19:11:46.735Z,149574.72
2023-04-03T19:14:16.627Z,149553.28
2023-04-03T19:16:43.925Z,149564.63
2023-04-03T19:19:11.914Z,149533.16
2023-04-03T19:21:40.321Z,149559.63
2023-04-03T19:24:11.410Z,149572.16
2023-04-03T19:26:38.264Z,149582.25
2023-04-03T19:29:05.033Z,149586.03
2023-04-03T19:31:32.757Z,149579.75
2023-04-03T19:33:59.828Z,149589.78
2023-04-03T19:36:25.918Z,149592.34
2023-04-03T19:38:52.804Z,149594.88
2023-04-03T19:41:23.837Z,149548.28
2023-04-03T19:43:52.227Z,149479.06
2023-04-03T19:46:18.573Z,149472.78
2023-04-03T19:48:46.609Z,149495.41
2023-04-03T19:51:13.192Z,149511.78
2023-04-03T19:53:39.086Z,149514.28
2023-04-03T19:56:05.072Z,149499.19
2023-04-03T19:58:33.968Z,149499.19
2023-04-03T20:01:02.380Z,149495.41
2023-04-03T20:03:29.875Z,149480.31
2023-04-03T20:05:58.327Z,149456.41
2023-04-03T20:08:27.677Z,149469.00
2023-04-03T20:10:55.240Z,149466.50
2023-04-03T20:13:21.724Z,149484.06
2023-04-03T20:15:47.630Z,149435.03
2023-04-03T20:18:19.619Z,149440.06
2023-04-03T20:21:01.035Z,149431.28
2023-04-03T20:23:28.425Z,149424.94
2023-04-03T20:26:08.461Z,149445.06
2023-04-03T20:28:35.713Z,149411.09
2023-04-03T20:31:01.761Z,149428.72
2023-04-03T20:33:28.002Z,149393.50
2023-04-03T20:35:57.831Z,149362.09
2023-04-03T20:38:24.729Z,149378.44
2023-04-03T20:40:51.452Z,149393.50
2023-04-03T20:43:17.312Z,149390.97
2023-04-03T20:45:43.332Z,149399.81
2023-04-03T20:48:12.258Z,149372.13
2023-04-03T20:50:38.726Z,149374.63
2023-04-03T20:53:04.785Z,149359.56
2023-04-03T20:55:30.650Z,149368.34
2023-04-03T20:58:00.641Z,149357.00
2023-04-03T21:00:28.198Z,149315.53
2023-04-03T21:02:56.292Z,149320.53
2023-04-03T21:05:25.257Z,149319.28
2023-04-03T21:08:29.068Z,149315.53
2023-04-03T21:11:32.266Z,149308.00
2023-04-03T21:14:36.145Z,149280.31
2023-04-03T21:17:01.838Z,149305.50
2023-04-03T21:19:27.753Z,149299.16
2023-04-03T21:21:54.278Z,149300.44
2023-04-03T21:24:20.312Z,149284.06
2023-04-03T21:26:46.482Z,149305.50
2023-04-03T21:29:13.567Z,149282.81
2023-04-03T21:31:57.623Z,149287.88
2023-04-03T21:34:28.506Z,149255.19
2023-04-03T21:36:55.389Z,149262.69
2023-04-03T21:39:22.323Z,149277.81
2023-04-03T21:41:54.082Z,149284.06
2023-04-03T21:44:20.221Z,149262.69
2023-04-03T21:46:47.158Z,149275.28
2023-04-03T21:49:13.472Z,149246.34
2023-04-03T21:51:39.439Z,149246.34
2023-04-03T21:54:05.374Z,149241.34
2023-04-03T21:56:31.218Z,149233.78
2023-04-03T21:58:59.862Z,149225.00
2023-04-03T22:01:25.726Z,149199.88
2023-04-03T22:03:51.572Z,149194.81
2023-04-03T22:06:17.545Z,149158.34
2023-04-03T22:08:43.830Z,149175.94
2023-04-03T22:11:12.714Z,149174.69
2023-04-03T22:13:38.727Z,149172.19
2023-04-03T22:16:05.314Z,149172.19
2023-04-03T22:18:31.942Z,149162.13
2023-04-03T22:20:58.236Z,149134.47
2023-04-03T22:23:25.411Z,149109.38
2023-04-03T22:26:07.818Z,149123.16
2023-04-03T22:28:40.439Z,149125.66
2023-04-03T22:31:07.150Z,149114.38
2023-04-03T22:33:35.700Z,149089.22
2023-04-03T22:36:03.451Z,149121.91
2023-04-03T22:38:29.604Z,149082.94
2023-04-03T22:40:59.856Z,149099.28
2023-04-03T22:43:27.189Z,149167.16
2023-04-03T22:45:53.230Z,149125.66
2023-04-03T22:48:19.299Z,149086.72
2023-04-03T22:50:46.240Z,149115.63
2023-04-03T22:53:12.426Z,149108.06
2023-04-03T22:55:38.315Z,149111.88
2023-04-03T22:58:05.012Z,149099.28
2023-04-03T23:00:31.303Z,149089.22
2023-04-03T23:03:00.958Z,149066.63
2023-04-03T23:05:27.886Z,149093.03
2023-04-03T23:07:53.844Z,149101.81
2023-04-03T23:10:20.970Z,149062.84
2023-04-03T23:12:46.776Z,149072.88
2023-04-03T23:15:16.880Z,149051.53
2023-04-03T23:17:42.789Z,149056.59
2023-04-03T23:20:09.067Z,149046.50
2023-04-03T23:22:35.580Z,149031.44
2023-04-03T23:25:01.432Z,149044.00
2023-04-03T23:27:27.517Z,149052.78
2023-04-03T23:29:53.335Z,149008.81
2023-04-03T23:32:19.229Z,149016.34
2023-04-03T23:34:45.260Z,149011.34
2023-04-03T23:37:12.083Z,148984.97
2023-04-03T23:39:37.960Z,148983.72
2023-04-03T23:42:08.338Z,149000.00
2023-04-03T23:44:34.337Z,149000.00
2023-04-03T23:47:00.570Z,148992.50
2023-04-03T23:49:27.005Z,148976.16
2023-04-03T23:51:53.523Z,148943.50
2023-04-03T23:54:20.008Z,148924.66
2023-04-03T23:56:45.776Z,148951.06
2023-04-03T23:59:11.631Z,148949.78
